createdAt,value
2023-04-12T00:02:50.000Z,1.65
2023-04-12T00:07:42.908Z,1.67
2023-04-12T00:12:34.931Z,2.08
2023-04-12T00:17:27.044Z,1.87
2023-04-12T00:22:18.855Z,1.80
2023-04-12T00:27:10.786Z,1.80
2023-04-12T00:32:04.023Z,1.80
2023-04-12T00:36:56.721Z,2.00
2023-04-12T00:41:48.676Z,2.13
2023-04-12T00:46:41.845Z,1.67
2023-04-12T00:51:33.832Z,1.75
2023-04-12T00:56:28.065Z,1.52
2023-04-12T01:01:21.750Z,1.88
2023-04-12T01:06:30.008Z,1.50
2023-04-12T01:11:45.106Z,1.92
2023-04-12T01:16:51.502Z,2.10
2023-04-12T01:22:08.495Z,1.92
2023-04-12T01:27:02.199Z,1.50
2023-04-12T01:31:58.499Z,1.70
2023-04-12T01:36:51.175Z,1.60
2023-04-12T01:41:45.674Z,1.80
2023-04-12T01:46:37.578Z,1.90
2023-04-12T01:51:38.480Z,1.55
2023-04-12T01:56:31.944Z,1.73
2023-04-12T02:01:24.329Z,1.77
2023-04-12T02:06:18.221Z,1.75
2023-04-12T02:11:13.551Z,1.70
2023-04-12T02:16:05.818Z,1.63
2023-04-12T02:20:59.167Z,1.90
2023-04-12T02:25:51.129Z,1.63
2023-04-12T02:30:43.313Z,1.57
2023-04-12T02:35:37.789Z,1.40
2023-04-12T02:40:40.860Z,1.63
2023-04-12T02:45:34.472Z,1.75
2023-04-12T02:55:27.208Z,1.77
2023-04-12T03:00:20.188Z,1.65
2023-04-12T03:05:18.519Z,2.00
2023-04-12T03:10:13.744Z,1.80
2023-04-12T03:15:11.033Z,1.63
2023-04-12T03:20:07.789Z,1.42
2023-04-12T03:24:59.686Z,1.70
2023-04-12T03:29:52.445Z,1.55
2023-04-12T03:34:47.434Z,1.73
2023-04-12T03:39:45.030Z,1.65
2023-04-12T03:44:37.974Z,1.60
2023-04-12T03:49:38.442Z,1.70
2023-04-12T03:54:35.253Z,1.65
2023-04-12T03:59:32.871Z,1.67
2023-04-12T04:04:26.294Z,1.75
2023-04-12T04:09:22.354Z,1.70
2023-04-12T04:14:16.528Z,1.42
2023-04-12T04:19:08.891Z,1.60
2023-04-12T04:24:04.296Z,1.40
2023-04-12T04:29:04.801Z,1.45
2023-04-12T04:34:03.432Z,1.33
2023-04-12T04:38:57.507Z,1.75
2023-04-12T04:44:01.479Z,1.60
2023-04-12T04:48:56.737Z,1.35
2023-04-12T04:53:48.865Z,1.23
2023-04-12T04:58:42.445Z,1.80
2023-04-12T05:03:35.215Z,1.70
2023-04-12T05:08:28.694Z,1.50
2023-04-12T05:13:22.356Z,1.60
2023-04-12T05:18:15.143Z,1.80
2023-04-12T05:23:06.994Z,1.60
2023-04-12T05:27:59.121Z,1.60
2023-04-12T05:32:51.105Z,1.50
2023-04-12T05:37:44.375Z,1.63
2023-04-12T05:42:38.605Z,1.42
2023-04-12T05:47:30.599Z,1.40
2023-04-12T05:52:22.453Z,1.58
2023-04-12T05:57:17.759Z,1.40
2023-04-12T06:02:12.580Z,1.50
2023-04-12T06:07:05.714Z,1.53
2023-04-12T06:16:49.618Z,3.83
2023-04-12T06:21:41.462Z,4.18
2023-04-12T06:26:39.837Z,3.10
2023-04-12T06:31:33.068Z,11.00
2023-04-12T06:36:26.245Z,11.18
2023-04-12T06:41:18.027Z,13.63
2023-04-12T06:46:10.046Z,14.00
2023-04-12T06:51:01.921Z,15.40
2023-04-12T06:55:54.005Z,15.88
2023-04-12T07:00:45.886Z,16.52
2023-04-12T07:05:39.295Z,16.50
2023-04-12T07:10:31.278Z,16.63
2023-04-12T07:15:23.176Z,17.27
2023-04-12T07:20:15.272Z,16.02
2023-04-12T07:25:10.910Z,16.65
2023-04-12T07:30:03.699Z,15.70
2023-04-12T07:34:55.906Z,14.57
2023-04-12T07:39:47.866Z,13.77
2023-04-12T07:44:39.898Z,20.30
2023-04-12T07:49:31.803Z,17.25
2023-04-12T07:54:26.918Z,15.95
2023-04-12T07:59:18.837Z,16.58
2023-04-12T08:04:10.928Z,19.15
2023-04-12T08:09:02.873Z,18.40
2023-04-12T08:13:54.907Z,19.08
2023-04-12T08:18:46.808Z,21.15
2023-04-12T08:23:38.634Z,20.30
2023-04-12T08:28:31.405Z,20.02
2023-04-12T08:33:23.378Z,19.13
2023-04-12T08:38:15.782Z,19.50
2023-04-12T08:43:12.765Z,18.80
2023-04-12T08:48:06.442Z,19.67
2023-04-12T08:52:59.170Z,19.65
2023-04-12T08:57:55.124Z,18.75
2023-04-12T09:02:49.139Z,18.92
2023-04-12T09:07:41.892Z,17.70
2023-04-12T09:12:33.952Z,18.35
2023-04-12T09:17:27.659Z,19.13
2023-04-12T09:22:19.637Z,18.00
2023-04-12T09:27:11.591Z,18.95
2023-04-12T09:32:07.930Z,19.05
2023-04-12T09:37:00.079Z,17.98
2023-04-12T09:42:04.809Z,18.00
2023-04-12T09:46:57.366Z,18.83
2023-04-12T09:51:52.715Z,17.02
2023-04-12T09:56:45.543Z,17.05
2023-04-12T10:01:41.324Z,16.23
2023-04-12T10:06:34.048Z,15.98
2023-04-12T10:11:28.244Z,15.95
2023-04-12T10:16:21.233Z,13.95
2023-04-12T10:26:05.569Z,13.82
2023-04-12T10:31:00.391Z,13.30
2023-04-12T10:36:03.118Z,12.87
2023-04-12T10:41:16.325Z,12.52
2023-04-12T10:46:08.448Z,12.38
2023-04-12T10:51:31.090Z,11.70
2023-04-12T10:56:44.617Z,12.60
2023-04-12T11:01:43.354Z,11.52
2023-04-12T11:06:47.510Z,11.00
2023-04-12T11:12:03.993Z,10.90
2023-04-12T11:17:17.223Z,10.77
2023-04-12T11:27:04.726Z,9.45
2023-04-12T11:31:56.592Z,10.38
2023-04-12T11:36:55.214Z,9.93
2023-04-12T11:41:48.049Z,9.25
2023-04-12T11:46:40.554Z,9.45
2023-04-12T11:51:33.772Z,9.82
2023-04-12T12:01:20.031Z,8.77
2023-04-12T12:06:12.828Z,9.38
2023-04-12T12:11:08.387Z,8.07
2023-04-12T12:16:00.767Z,8.48
2023-04-12T12:20:52.764Z,10.15
2023-04-12T12:25:47.426Z,12.65
2023-04-12T12:30:40.270Z,14.63
2023-04-12T12:35:34.849Z,15.05
2023-04-12T12:40:32.590Z,15.25
2023-04-12T12:45:27.301Z,16.23
2023-04-12T12:50:22.039Z,14.07
2023-04-12T12:55:16.349Z,16.77
2023-04-12T13:00:10.063Z,19.67
2023-04-12T13:05:03.275Z,18.15
2023-04-12T13:09:55.354Z,16.73
2023-04-12T13:14:47.181Z,15.93
2023-04-12T13:19:39.006Z,15.38
2023-04-12T13:24:30.898Z,13.25
2023-04-12T13:29:22.769Z,14.15
2023-04-12T13:34:14.782Z,12.65
2023-04-12T13:39:06.660Z,13.05
2023-04-12T13:43:58.869Z,11.65
2023-04-12T13:48:51.668Z,11.93
2023-04-12T13:53:43.750Z,11.68
2023-04-12T13:58:35.787Z,11.27
2023-04-12T14:03:27.759Z,12.07
2023-04-12T14:08:19.620Z,11.52
2023-04-12T14:13:11.417Z,11.88
2023-04-12T14:18:03.345Z,12.18
2023-04-12T14:22:55.185Z,11.35
2023-04-12T14:27:47.032Z,10.35
2023-04-12T14:32:39.161Z,10.10
2023-04-12T14:37:32.989Z,12.43
2023-04-12T14:42:24.837Z,10.27
2023-04-12T14:47:16.810Z,11.00
2023-04-12T14:52:08.895Z,10.65
2023-04-12T14:57:00.797Z,10.37
2023-04-12T15:01:53.449Z,10.50
2023-04-12T15:06:45.436Z,9.93
2023-04-12T15:11:38.360Z,10.20
2023-04-12T15:16:31.480Z,9.77
2023-04-12T15:21:23.371Z,9.43
2023-04-12T15:26:15.993Z,10.15
2023-04-12T15:31:09.698Z,9.63
2023-04-12T15:36:02.730Z,10.43
2023-04-12T15:41:00.142Z,8.65
2023-04-12T15:45:56.272Z,8.68
2023-04-12T15:50:51.372Z,8.13
2023-04-12T15:55:44.995Z,8.43
2023-04-12T16:00:38.699Z,7.78
2023-04-12T16:05:31.249Z,7.78
2023-04-12T16:10:24.722Z,7.60
2023-04-12T16:15:17.693Z,7.25
2023-04-12T16:20:12.871Z,7.50
2023-04-12T16:25:06.577Z,7.25
2023-04-12T16:29:59.608Z,6.45
2023-04-12T16:39:46.230Z,5.93
2023-04-12T16:44:38.583Z,5.85
2023-04-12T16:49:30.947Z,6.60
2023-04-12T16:54:22.873Z,6.55
2023-04-12T16:59:15.901Z,6.53
2023-04-12T17:04:08.078Z,8.63
2023-04-12T17:09:00.585Z,6.00
2023-04-12T17:13:52.777Z,5.78
2023-04-12T17:18:46.127Z,5.25
2023-04-12T17:23:38.824Z,5.65
2023-04-12T17:28:31.026Z,5.85
2023-04-12T17:33:23.128Z,5.50
2023-04-12T17:38:15.150Z,6.43
2023-04-12T17:43:07.198Z,5.45
2023-04-12T17:47:59.089Z,5.47
2023-04-12T17:52:50.997Z,5.47
2023-04-12T17:57:44.399Z,5.55
2023-04-12T18:02:36.965Z,5.20
2023-04-12T18:07:30.545Z,5.85
2023-04-12T18:12:22.440Z,5.10
2023-04-12T18:17:14.521Z,5.45
2023-04-12T18:22:06.797Z,5.20
2023-04-12T18:26:59.442Z,5.00
2023-04-12T18:31:51.695Z,5.57
2023-04-12T18:36:44.309Z,5.30
2023-04-12T18:41:36.640Z,5.22
2023-04-12T18:46:29.690Z,5.10
2023-04-12T18:51:23.328Z,5.18
2023-04-12T18:56:18.410Z,5.43
2023-04-12T19:01:10.445Z,4.50
2023-04-12T19:06:04.521Z,5.32
2023-04-12T19:10:56.616Z,4.80
2023-04-12T19:15:48.937Z,4.73
2023-04-12T19:20:41.181Z,5.00
2023-04-12T19:25:34.717Z,5.03
2023-04-12T19:30:27.206Z,4.85
2023-04-12T19:35:19.112Z,4.40
2023-04-12T19:40:12.656Z,5.13
2023-04-12T19:45:04.861Z,4.80
2023-04-12T19:49:56.893Z,4.15
2023-04-12T19:54:48.982Z,5.00
2023-04-12T19:59:40.853Z,5.17
2023-04-12T20:04:33.584Z,4.60
2023-04-12T20:09:26.432Z,4.60
2023-04-12T20:14:18.667Z,4.30
2023-04-12T20:19:11.126Z,4.70
2023-04-12T20:24:04.076Z,4.50
2023-04-12T20:33:48.429Z,4.93
2023-04-12T20:38:40.771Z,4.27
2023-04-12T20:43:46.726Z,4.07
2023-04-12T20:48:38.625Z,4.20
2023-04-12T20:53:30.653Z,4.35
2023-04-12T20:58:24.126Z,4.40
2023-04-12T21:03:16.088Z,4.25
2023-04-12T21:25:27.939Z,3.97
2023-04-12T21:30:20.636Z,4.57
2023-04-12T21:35:14.265Z,3.95
2023-04-12T21:40:10.338Z,4.68
2023-04-12T21:45:03.239Z,4.07
2023-04-12T21:49:55.328Z,4.28
2023-04-12T21:54:47.422Z,4.30
2023-04-12T22:00:36.549Z,4.65
2023-04-12T22:06:32.181Z,4.30
2023-04-12T22:23:18.400Z,4.55
2023-04-12T22:28:12.514Z,4.32
2023-04-12T22:33:04.352Z,4.10
2023-04-12T22:37:56.840Z,3.88
2023-04-12T22:42:48.731Z,4.47
2023-04-12T22:47:41.729Z,4.00
2023-04-12T22:57:25.724Z,4.07
2023-04-12T23:02:17.745Z,3.60
2023-04-12T23:07:12.903Z,3.70
2023-04-12T23:12:06.545Z,3.97
2023-04-12T23:16:58.423Z,3.65
2023-04-12T23:21:50.351Z,4.00
2023-04-12T23:26:42.617Z,4.05
2023-04-12T23:31:34.555Z,3.83
2023-04-12T23:36:26.479Z,3.97
2023-04-12T23:41:18.504Z,3.88
2023-04-12T23:46:10.504Z,3.90
2023-04-12T23:51:02.346Z,3.80
2023-04-12T23:55:54.466Z,3.40
